This is the latest recevied weather packets stored in our database for station/object HS2LXA-WX. If no packets are shown the sender has not sent any weather packets the latest 10 day(s).
| Time | Temp. | Humidity | Pressure | Rain* | Wind** | Luminosity | Snow |
|---|---|---|---|---|---|---|---|
| 1777512792 | 32.22° C | 75% | 1013.2 hPa | 0 mm | - | - | - |
| 1777512188 | 32.78° C | 74% | 1013.1 hPa | 0 mm | - | - | - |
| 1777511583 | 32.22° C | 76% | 1013.1 hPa | 0 mm | - | - | - |
| 1777510979 | 32.22° C | 75% | 1013.1 hPa | 0 mm | - | - | - |
| 1777510375 | 32.22° C | 76% | 1013.2 hPa | 0 mm | - | - | - |
| 1777509771 | 31.67° C | 78% | 1013.2 hPa | 0 mm | - | - | - |
| 1777509167 | 31.11° C | 79% | 1013.2 hPa | 0 mm | - | - | - |
| 1777508566 | 30.56° C | 83% | 1013.2 hPa | 0 mm | - | - | - |
| 1777507962 | 30.56° C | 83% | 1013.2 hPa | 0 mm | - | - | - |
| 1777507358 | 30.56° C | 85% | 1013.1 hPa | 0 mm | - | - | - |
| 1777506754 | 30.56° C | 82% | 1013.2 hPa | 0 mm | - | - | - |
| 1777506153 | 31.11° C | 80% | 1013.2 hPa | 0 mm | - | - | - |
| 1777505549 | 31.11° C | 80% | 1013.2 hPa | 0 mm | - | - | - |
| 1777504945 | 31.11° C | 80% | 1013.1 hPa | 0 mm | - | - | - |
| 1777504341 | 31.11° C | 79% | 1013.2 hPa | 0 mm | - | - | - |
| 1777503737 | 31.11° C | 78% | 1013.2 hPa | 0 mm | - | - | - |
| 1777503132 | 31.11° C | 78% | 1013.1 hPa | 0 mm | - | - | - |
| 1777502528 | 31.11° C | 77% | 1013.1 hPa | 0 mm | - | - | - |
| 1777501923 | 31.11° C | 76% | 1013.2 hPa | 0 mm | - | - | - |
| 1777501320 | 31.11° C | 76% | 1013.1 hPa | 0 mm | - | - | - |
| 1777500716 | 31.11° C | 77% | 1013.1 hPa | 0 mm | - | - | - |
| 1777500114 | 31.11° C | 77% | 1013.1 hPa | 0 mm | - | - | - |
| 1777499511 | 31.11° C | 77% | 1013.1 hPa | 0 mm | - | - | - |
| 1777498906 | 31.11° C | 77% | 1013.2 hPa | 0 mm | - | - | - |
| 1777498302 | 31.11° C | 78% | 1013.1 hPa | 0 mm | - | - | - |
* Rain latest hour (hover to see other rain measurements)
** Current wind speed in m/s (hover to see current wind gust speed)